Station: Sunshine Coast Airport  

  Atmospheric Gas Attenuation - ITU Rec 676-11   ----------------- dB/100km -----------------
Date Time Temp RH % AH g/m3 Dew Point Wind Direction Speed kph Gust kph Barometer mB Rainfall Since 9am 24GHz 47GHz 76GHz 122GHz 134GHz 241GHz
05/05 11:10 24.5 72 16.11 19.1 19 22 1016.7 0.2 34.9 35.1 64.6 170.8 183.4 636.7
05/05 11:00 24.4 74 16.47 19.5 22 24 1016.8 0.2 35.6 35.8 66.3 175.3 188.9 655.8
05/05 10:50 24.6 72 16.2 19.2 19 22 1017.2 0.2 35.0 35.2 65.0 171.7 184.6 640.7
05/05 10:40 24.8 75 17.07 20.1 19 20 1017.2 0.2 36.9 36.7 68.7 181.6 196.8 683.2
05/05 10:30 25 72 16.57 19.6 17 22 1017.1 0.2 35.8 35.7 66.3 175.1 188.9 655.9
05/05 10:20 24.5 70 15.67 18.7 20 22 1017.3 0.2 33.9 34.3 62.7 165.7 177.2 615.0
05/05 10:10 25.1 70 16.2 19.2 15 19 1017.4 0.2 35.0 35.0 64.6 170.6 183.4 636.6
05/05 10:00 25.1 70 16.2 19.2 15 19 1017.3 0.2 35.0 35.0 64.6 170.6 183.4 636.6
05/05 09:50 24.5 70 15.67 18.7 17 20 1017.5 0 33.9 34.4 62.8 165.7 177.2 615.1
05/05 09:40 24.7 69 15.62 18.6 17 20 1017.5 0 33.8 34.2 62.4 164.7 176.0 611.0
05/05 09:30 24.6 73 16.43 19.4 15 24 1017.5 0 35.5 35.7 66.0 174.4 187.9 652.4
05/05 09:20 24.1 73 15.97 19 13 17 1017.6 0 34.6 35.0 64.4 170.1 182.5 633.4
05/05 09:10 23.9 76 16.44 19.4 20 22 1017.6 0 35.6 36.0 66.7 176.2 189.8 659.0
05/05 09:00 23.5 76 16.07 19 17 22 1017.6 0 34.9 35.5 65.4 172.6 185.4 643.5
05/05 08:50 23.7 79 16.9 19.8 15 19 1017.7 0.4 36.6 36.9 68.9 182.2 197.2 684.5
05/05 08:40 23.3 79 16.52 19.5 15 17 1017.6 0.4 35.8 36.4 67.6 178.5 192.5 668.3
05/05 08:30 23 81 16.65 19.6 15 19 1017.5 0.4 36.1 36.7 68.4 180.8 195.2 677.7
05/05 08:20 22.7 82 16.57 19.5 13 15 1017.6 0.4 36.0 36.7 68.3 180.5 194.8 676.2
05/05 08:10 22.2 83 16.29 19.2 15 17 1017.6 0.4 35.4 36.4 67.5 178.3 191.9 666.0
05/05 08:00 21.9 85 16.4 19.3 15 19 1017.5 0.4 35.7 36.8 68.3 180.3 194.3 674.3
05/05 07:50 21.6 88 16.69 19.5 15 17 1017.6 0.4 36.3 37.4 69.9 184.6 199.5 692.4
05/05 07:40 21.1 92 16.95 19.7 11 13 1017.6 0.4 36.9 38.2 71.6 189.1 204.9 711.0
05/05 07:30 20.7 93 16.74 19.5 9 13 1017.5 0.4 36.5 37.9 70.9 187.5 202.7 703.4
05/05 07:20 20.3 93 16.35 19.1 7 9 1017.4 0.4 35.7 37.4 69.5 183.5 197.7 686.0
05/05 07:10 20.1 93 16.16 18.9 9 9 1017.4 0.4 35.3 37.1 68.7 181.6 195.3 677.6
05/05 07:00 19.8 93 15.88 18.6 7 9 1017.1 0.4 34.8 36.7 67.7 178.8 191.8 665.1
05/05 06:50 19.5 93 15.61 18.3 7 7 1017.1 0.4 34.2 36.3 66.7 176.1 188.4 653.3
05/05 06:40 19.4 93 15.52 18.2 7 9 1017 0.4 34.0 36.2 66.3 175.2 187.3 649.3
05/05 06:30 19.3 93 15.42 18.1 7 9 1016.8 0.4 33.8 36.0 65.9 174.2 185.9 644.8
05/05 06:20 19.5 92 15.44 18.2 7 7 1016.8 0.4 33.9 36.0 65.9 174.0 185.8 644.1
05/05 06:10 19.6 93 15.7 18.4 9 11 1016.6 0.4 34.4 36.4 67.0 176.9 189.4 657.0
05/05 06:00 19.6 92 15.53 18.3 9 11 1016.3 0.4 34.0 36.1 66.2 174.8 186.8 647.8
05/05 05:50 19.8 92 15.71 18.5 9 9 1016.4 0.4 34.4 36.3 66.8 176.6 189.1 655.7
05/05 05:40 19.9 92 15.81 18.6 13 13 1016.3 0.4 34.6 36.5 67.2 177.6 190.3 660.1
05/05 05:30 20 92 15.9 18.7 11 13 1016.2 0.4 34.8 36.6 67.5 178.4 191.4 664.0
05/05 05:20 20.2 92 16.08 18.9 13 13 1016.3 0.4 35.2 36.8 68.2 180.2 193.7 671.9
05/05 05:10 20.4 93 16.45 19.2 11 13 1016.2 0.4 35.9 37.5 69.8 184.4 198.9 689.9
05/05 05:00 20.5 93 16.55 19.3 13 19 1016 0.4 36.2 37.6 70.1 185.3 200.1 694.3
05/05 04:50 20.4 93 16.45 19.2 13 15 1016.1 0.4 35.9 37.5 69.8 184.3 198.8 689.8
05/05 04:40 20.3 94 16.53 19.3 7 7 1016 0.4 36.1 37.6 70.2 185.6 200.3 695.0
05/05 04:30 20.1 94 16.34 19.1 9 11 1015.8 0.2 35.7 37.4 69.5 183.6 197.9 686.5
05/05 04:20 19.9 93 15.98 18.7 9 9 1015.9 0.2 35.0 36.8 68.0 179.6 192.9 669.0
05/05 04:10 20 93 16.07 18.8 9 9 1015.8 0.2 35.2 36.9 68.3 180.5 194.0 672.9
05/05 04:00 20.1 94 16.34 19.1 9 11 1015.8 0.2 35.7 37.4 69.5 183.6 197.9 686.5
05/05 03:50 19.9 93 15.98 18.7 9 9 1015.8 0.2 35.0 36.8 68.0 179.6 192.9 669.0
05/05 03:40 19.8 93 15.88 18.6 11 11 1015.8 0.2 34.8 36.6 67.6 178.6 191.6 664.5
05/05 03:30 19.7 93 15.79 18.5 9 11 1015.7 0.2 34.6 36.5 67.3 177.7 190.5 660.5
05/05 03:20 19.6 93 15.7 18.4 9 9 1015.8 0.2 34.4 36.4 66.9 176.8 189.3 656.6
05/05 03:10 19.7 93 15.79 18.5 9 9 1015.8 0.2 34.6 36.5 67.3 177.7 190.5 660.6
05/05 03:00 19.9 93 15.98 18.7 9 11 1015.6 0.2 35.0 36.8 68.0 179.6 192.8 668.9
05/05 02:50 20 92 15.9 18.7 7 9 1015.7 0.2 34.8 36.6 67.5 178.4 191.4 663.8
05/05 02:40 20.2 92 16.08 18.9 9 9 1015.7 0.2 35.2 36.8 68.2 180.1 193.6 671.6
05/05 02:30 20.2 92 16.08 18.9 7 9 1015.8 0.2 35.2 36.8 68.2 180.1 193.6 671.7
05/05 02:20 20.4 92 16.27 19.1 9 9 1016 0.2 35.6 37.1 68.9 182.1 196.1 680.1
05/05 02:10 20.6 93 16.64 19.4 9 11 1016.1 0.2 36.3 37.7 70.5 186.2 201.2 698.2
05/05 02:00 20.1 92 15.99 18.8 0 2 1016.1 0.2 35.0 36.7 67.9 179.3 192.5 667.9
05/05 01:50 20.1 91 15.82 18.6 0 0 1016.2 0.2 34.6 36.4 67.1 177.2 190.0 658.9
05/05 01:40 20.7 92 16.56 19.4 9 11 1016.2 0.2 36.2 37.5 70.0 185.0 199.8 693.1
05/05 01:30 20.8 92 16.66 19.5 11 13 1016.2 0.2 36.4 37.7 70.4 186.0 201.0 697.5
05/05 01:20 20.8 92 16.66 19.5 9 11 1016.3 0.2 36.4 37.7 70.4 186.0 201.0 697.6
05/05 01:10 20.6 92 16.46 19.3 9 9 1016.4 0.2 36.0 37.4 69.6 184.0 198.5 688.7
05/05 01:00 20.5 92 16.37 19.2 7 9 1016.4 0.2 35.8 37.3 69.3 183.1 197.4 684.8
05/05 00:50 20.4 92 16.27 19.1 7 7 1016.6 0.2 35.6 37.1 68.9 182.2 196.1 680.4
05/05 00:40 20.4 92 16.27 19.1 7 7 1016.7 0.2 35.6 37.1 69.0 182.2 196.1 680.5
05/05 00:30 20.3 92 16.18 19 6 9 1016.7 0.2 35.4 37.0 68.6 181.3 195.0 676.5
05/05 00:20 20.3 91 16 18.8 7 9 1016.7 0.2 35.0 36.7 67.8 179.0 192.3 666.9
05/05 00:10 20.5 91 16.19 19 7 7 1016.9 0.2 35.4 36.9 68.5 181.0 194.7 675.4
05/05 00:00 20.5 91 16.19 19 9 11 1016.9 0.2 35.4 36.9 68.5 181.0 194.7 675.4
04/05 23:50 20.4 91 16.1 18.9 9 11 1017 0.2 35.2 36.8 68.2 180.1 193.6 671.5
04/05 23:40 20.7 91 16.38 19.2 9 11 1017.1 0.2 35.8 37.2 69.2 182.9 197.1 683.8
04/05 23:30 20.5 90 16.01 18.8 7 13 1016.9 0.2 35.0 36.6 67.7 178.7 191.9 665.8
04/05 23:20 20.6 90 16.11 18.9 9 9 1017 0.2 35.2 36.8 68.0 179.7 193.2 670.3
04/05 23:10 20.7 90 16.2 19 6 7 1017.1 0.2 35.4 36.9 68.4 180.6 194.3 674.2
04/05 23:00 20.7 89 16.02 18.8 11 15 1017.2 0.2 35.0 36.6 67.5 178.4 191.6 664.7
04/05 22:50 20.6 87 15.57 18.4 11 13 1017.3 0.2 34.0 35.8 65.6 173.1 185.1 641.9
04/05 22:40 21.1 85 15.66 18.5 0 0 1017.4 0.2 34.2 35.7 65.5 173.1 185.2 642.4
04/05 22:30 21.8 83 15.92 18.8 7 9 1017.3 0.2 34.7 35.9 66.1 174.7 187.3 650.0
04/05 22:20 22 84 16.3 19.2 7 9 1017.5 0.2 35.5 36.5 67.7 178.9 192.6 668.2
04/05 22:10 22.1 85 16.59 19.5 7 9 1017.5 0.2 36.1 37.0 69.0 182.2 196.7 682.6
04/05 22:00 22.1 85 16.59 19.5 7 9 1017.6 0.2 36.1 37.0 69.0 182.2 196.7 682.6
04/05 21:50 22.3 84 16.59 19.5 9 9 1017.7 0.2 36.1 36.9 68.8 181.7 196.2 680.9
04/05 21:40 22.5 84 16.78 19.7 11 13 1017.9 0.2 36.5 37.2 69.5 183.6 198.6 689.2
04/05 21:30 22.5 82 16.38 19.3 11 17 1017.9 0.2 35.6 36.5 67.6 178.7 192.5 668.2
04/05 21:20 22.5 82 16.38 19.3 13 17 1018 0.2 35.6 36.5 67.7 178.7 192.6 668.2
04/05 21:10 22.7 81 16.36 19.3 15 17 1018 0.2 35.5 36.4 67.4 178.0 191.7 665.4
04/05 21:00 22.7 80 16.16 19.1 15 19 1017.9 0.2 35.1 36.0 66.5 175.6 188.7 655.0
04/05 20:50 22.8 78 15.85 18.8 15 19 1018 0.2 34.4 35.4 65.0 171.6 183.9 638.3
04/05 20:40 22.6 79 15.87 18.8 13 15 1017.9 0.2 34.5 35.5 65.2 172.3 184.7 640.9
04/05 20:30 22.7 80 16.16 19.1 13 17 1017.8 0.2 35.1 36.0 66.5 175.6 188.7 655.0
04/05 20:20 22.6 80 16.07 19 13 15 1017.9 0.2 34.9 35.9 66.1 174.7 187.7 651.2
04/05 20:10 22.5 81 16.18 19.1 13 15 1017.9 0.2 35.2 36.1 66.7 176.3 189.5 657.8
04/05 20:00 22.5 83 16.58 19.5 13 19 1017.7 0.2 36.0 36.8 68.6 181.1 195.5 678.6
04/05 19:50 22.6 82 16.47 19.4 13 17 1017.8 0.2 35.8 36.6 68.0 179.6 193.6 672.0
04/05 19:40 22.5 82 16.38 19.3 15 17 1017.7 0.2 35.6 36.5 67.6 178.7 192.5 668.1
04/05 19:30 22.6 83 16.67 19.6 15 20 1017.7 0.2 36.2 37.0 68.9 182.0 196.6 682.4
04/05 19:20 22.5 84 16.78 19.7 15 17 1017.7 0.2 36.5 37.2 69.5 183.6 198.5 689.1
04/05 19:10 22.6 85 17.07 19.9 15 17 1017.5 0.2 37.1 37.7 70.7 186.9 202.6 703.4
04/05 19:00 22.5 85 16.98 19.9 15 20 1017.2 0.2 36.9 37.6 70.4 186.0 201.5 699.4
04/05 18:50 22.6 85 17.07 19.9 15 19 1017.2 0.2 37.1 37.7 70.7 186.9 202.6 703.2
04/05 18:40 22.9 82 16.76 19.7 19 20 1017.2 0.2 36.4 37.0 69.0 182.3 197.1 684.2

Last Refresh: 05-May-2026 10:51:16

Bureau of Meteorology